Time;durP1;ratioP1;P1;durP2;ratioP2;P2;SDS_P1;SDS_P2;PMS_P1;PMS_P2;Temp;Humidity;BMP_temperature;BMP_pressure;BME280_temperature;BME280_humidity;BME280_pressure;Samples;Min_cycle;Max_cycle;Signal;HPM_P1;HPM_P2
2022/09/15 00:00:15;;;;;;;4.50;2.20;;;20.00;99.90;;;;;;4995086;28;20499;-68
2022/09/15 00:02:41;;;;;;;2.70;2.40;;;20.00;99.90;;;;;;5000368;28;20412;-68
2022/09/15 00:05:08;;;;;;;7.60;2.50;;;20.00;99.90;;;;;;4994637;28;20447;-67
2022/09/15 00:07:33;;;;;;;4.00;2.30;;;20.00;99.90;;;;;;4997912;28;20420;-68
2022/09/15 00:09:59;;;;;;;3.63;2.50;;;19.90;99.90;;;;;;4994842;28;20459;-67
2022/09/15 00:12:26;;;;;;;2.50;2.20;;;19.90;99.90;;;;;;4997541;28;20189;-67
2022/09/15 00:14:52;;;;;;;3.20;2.20;;;19.80;99.90;;;;;;4998196;28;20208;-67
2022/09/15 00:17:18;;;;;;;2.93;2.00;;;19.90;99.90;;;;;;4995206;28;20444;-67
2022/09/15 00:19:43;;;;;;;3.90;2.23;;;19.80;99.90;;;;;;4995602;28;20768;-68
2022/09/15 00:22:09;;;;;;;2.93;2.17;;;19.90;99.90;;;;;;4995779;28;20188;-68
2022/09/15 00:24:34;;;;;;;4.07;2.00;;;20.00;99.90;;;;;;4996328;28;20429;-68
2022/09/15 00:27:00;;;;;;;4.10;2.27;;;20.00;99.90;;;;;;4996964;28;20188;-67
2022/09/15 00:29:26;;;;;;;4.40;2.20;;;19.90;99.90;;;;;;4996245;28;20184;-67
2022/09/15 00:31:51;;;;;;;3.13;2.37;;;20.00;99.90;;;;;;4993495;28;20324;-68
2022/09/15 00:34:20;;;;;;;3.30;2.03;;;20.00;99.90;;;;;;4992309;28;20670;-67
2022/09/15 00:36:46;;;;;;;3.70;1.87;;;20.00;99.90;;;;;;4995586;28;20212;-67
2022/09/15 00:39:12;;;;;;;3.43;2.13;;;19.90;99.90;;;;;;4997463;28;20973;-67
2022/09/15 00:41:39;;;;;;;2.53;2.27;;;19.90;99.90;;;;;;4997928;28;20227;-68
2022/09/15 00:44:33;;;;;;;3.50;2.13;;;19.90;99.90;;;;;;4996905;28;20169;-68
2022/09/15 00:47:00;;;;;;;2.63;2.30;;;19.80;99.90;;;;;;4991302;28;20435;-67
2022/09/15 00:49:30;;;;;;;4.03;1.90;;;19.80;99.90;;;;;;4997007;28;20428;-67
2022/09/15 00:52:07;;;;;;;2.50;1.80;;;19.80;99.90;;;;;;4997679;28;20437;-67
2022/09/15 00:54:49;;;;;;;2.43;2.10;;;19.80;99.90;;;;;;4995438;28;20448;-67
2022/09/15 00:57:38;;;;;;;3.40;2.27;;;19.80;99.90;;;;;;4996490;28;20412;-68
2022/09/15 01:00:09;;;;;;;3.57;2.20;;;19.80;99.90;;;;;;4994474;28;20496;-68
2022/09/15 01:02:36;;;;;;;4.90;1.90;;;19.80;99.90;;;;;;4998145;28;20412;-68
2022/09/15 01:05:06;;;;;;;2.90;2.17;;;19.80;99.90;;;;;;4999697;28;20460;-68
2022/09/15 01:07:38;;;;;;;3.50;2.00;;;19.80;99.90;;;;;;4995120;28;20439;-66
2022/09/15 01:10:26;;;;;;;2.27;2.07;;;19.80;99.90;;;;;;5002614;28;20446;-67
2022/09/15 01:12:55;;;;;;;3.33;1.73;;;19.90;99.90;;;;;;4999695;28;20530;-68
2022/09/15 01:15:25;;;;;;;3.53;2.50;;;19.80;99.90;;;;;;4996003;28;20448;-68
2022/09/15 01:18:38;;;;;;;3.37;2.57;;;19.80;99.90;;;;;;4999466;28;20922;-67
2022/09/15 01:21:38;;;;;;;4.30;2.53;;;19.80;99.90;;;;;;4939580;28;20926;-68
2022/09/15 01:24:06;;;;;;;2.90;1.93;;;19.80;99.90;;;;;;4940341;28;20501;-67
2022/09/15 01:26:37;;;;;;;3.80;2.40;;;19.70;99.90;;;;;;4980583;28;20511;-68
2022/09/15 01:29:23;;;;;;;4.10;2.10;;;19.70;99.90;;;;;;4996325;28;20427;-67
2022/09/15 01:35:16;;;;;;;5.23;2.20;;;19.80;99.90;;;;;;4995061;28;20964;-67
2022/09/15 01:37:51;;;;;;;6.60;3.47;;;19.80;99.90;;;;;;5000815;28;20416;-67
2022/09/15 01:40:19;;;;;;;3.60;2.47;;;19.80;99.90;;;;;;4959730;28;20459;-68
2022/09/15 01:42:47;;;;;;;5.17;2.27;;;19.80;99.90;;;;;;4998446;28;20972;-68
2022/09/15 01:45:23;;;;;;;3.40;2.43;;;19.90;99.90;;;;;;4998953;28;21082;-67
2022/09/15 01:47:53;;;;;;;5.60;2.80;;;19.80;99.90;;;;;;5000439;28;21123;-67
2022/09/15 01:50:27;;;;;;;3.77;2.80;;;19.90;99.90;;;;;;4981212;28;20745;-68
2022/09/15 01:52:56;;;;;;;3.53;2.50;;;19.90;99.90;;;;;;4995581;28;20419;-67
2022/09/15 01:55:49;;;;;;;2.67;2.30;;;19.90;99.90;;;;;;4999070;28;20444;-67
2022/09/15 01:58:14;;;;;;;4.37;3.20;;;20.00;99.90;;;;;;4994378;28;20516;-67
2022/09/15 02:00:48;;;;;;;3.67;2.47;;;20.00;99.90;;;;;;4998096;28;20550;-67
2022/09/15 02:03:39;;;;;;;3.00;2.60;;;20.00;99.90;;;;;;4998407;28;20227;-67
2022/09/15 02:06:18;;;;;;;2.40;2.17;;;19.90;99.90;;;;;;4997271;28;20487;-68
2022/09/15 02:08:51;;;;;;;6.30;2.40;;;19.90;99.90;;;;;;4998688;28;20435;-67
2022/09/15 02:11:19;;;;;;;4.63;2.77;;;19.90;99.90;;;;;;5000865;28;20786;-67
2022/09/15 02:13:58;;;;;;;3.07;2.40;;;19.90;99.90;;;;;;5000110;28;20798;-67
2022/09/15 02:16:28;;;;;;;2.83;2.30;;;19.90;99.90;;;;;;4998078;28;20850;-67
2022/09/15 02:19:16;;;;;;;3.07;2.20;;;19.90;99.90;;;;;;5000811;28;20464;-67
2022/09/15 02:22:10;;;;;;;3.40;2.30;;;19.90;99.90;;;;;;4998989;28;20461;-67
2022/09/15 02:24:41;;;;;;;9.53;2.93;;;19.80;99.90;;;;;;4996331;28;20440;-68
2022/09/15 02:27:19;;;;;;;5.27;2.73;;;19.80;99.90;;;;;;4981161;28;20932;-67
2022/09/15 02:29:47;;;;;;;5.33;2.53;;;19.80;99.90;;;;;;4997377;28;20530;-67
2022/09/15 02:32:16;;;;;;;5.17;2.77;;;19.80;99.90;;;;;;5001474;28;20832;-67
2022/09/15 02:34:50;;;;;;;5.47;2.80;;;19.80;99.90;;;;;;5000177;28;20447;-67
2022/09/15 02:37:18;;;;;;;4.77;2.90;;;19.90;99.90;;;;;;4999329;28;20416;-67
2022/09/15 02:39:50;;;;;;;3.73;2.80;;;19.80;99.90;;;;;;4995592;28;20469;-67
2022/09/15 02:42:27;;;;;;;5.13;2.30;;;19.70;99.90;;;;;;4996390;28;20409;-67
2022/09/15 02:44:54;;;;;;;4.60;2.80;;;19.80;99.90;;;;;;4999455;28;20481;-67
2022/09/15 02:47:19;;;;;;;5.90;2.97;;;19.80;99.90;;;;;;4996658;28;20433;-67
2022/09/15 02:49:45;;;;;;;3.00;2.30;;;19.80;99.90;;;;;;5000133;28;20444;-67
2022/09/15 02:52:11;;;;;;;3.80;2.63;;;19.90;99.90;;;;;;4996035;28;20182;-67
2022/09/15 02:54:36;;;;;;;6.20;2.13;;;19.90;99.90;;;;;;4997061;28;20205;-68
2022/09/15 02:57:02;;;;;;;6.53;2.83;;;19.90;99.90;;;;;;4995745;28;20190;-67
2022/09/15 03:00:11;;;;;;;4.17;3.00;;;19.80;99.90;;;;;;4996762;28;20182;-67
2022/09/15 03:02:18;;;;;;;3.73;2.60;;;19.90;99.90;;;;;;4998991;28;20181;-67
2022/09/15 03:04:49;;;;;;;3.60;2.63;;;19.80;99.90;;;;;;4998939;28;20454;-67
2022/09/15 03:07:16;;;;;;;3.10;2.70;;;19.90;99.90;;;;;;4992399;28;20436;-68
2022/09/15 03:09:41;;;;;;;2.50;2.10;;;19.90;99.90;;;;;;4999639;28;20504;-67
2022/09/15 03:12:07;;;;;;;3.93;2.10;;;19.90;99.90;;;;;;4996493;28;20467;-67
2022/09/15 03:14:32;;;;;;;5.30;2.27;;;19.80;99.90;;;;;;4997919;28;20204;-67
2022/09/15 03:16:58;;;;;;;4.87;2.73;;;19.90;99.90;;;;;;4998840;28;20189;-67
2022/09/15 03:19:25;;;;;;;2.65;2.15;;;19.80;99.90;;;;;;4996375;28;20174;-67
2022/09/15 03:21:50;;;;;;;3.90;2.00;;;19.80;99.90;;;;;;5000596;28;20655;-67
2022/09/15 03:24:18;;;;;;;4.10;1.87;;;19.90;99.90;;;;;;4997678;28;20815;-67
2022/09/15 03:26:44;;;;;;;4.83;1.93;;;19.90;99.90;;;;;;4997179;28;20169;-67
2022/09/15 03:29:10;;;;;;;3.50;2.17;;;19.80;99.90;;;;;;4977624;28;20423;-68
2022/09/15 03:31:37;;;;;;;4.80;3.40;;;19.90;99.90;;;;;;4995189;28;20511;-67
2022/09/15 03:34:02;;;;;;;4.20;2.03;;;19.90;99.90;;;;;;4981605;28;20502;-68
2022/09/15 03:36:28;;;;;;;3.03;1.83;;;19.90;99.90;;;;;;4982020;28;20420;-67
2022/09/15 03:38:56;;;;;;;6.60;2.23;;;19.90;99.90;;;;;;4996603;28;20676;-68
2022/09/15 03:41:22;;;;;;;3.23;2.30;;;20.00;99.90;;;;;;4997055;28;21479;-68
2022/09/15 03:43:48;;;;;;;5.47;2.20;;;19.90;99.90;;;;;;4981300;28;20471;-68
2022/09/15 03:46:14;;;;;;;3.47;2.60;;;19.90;99.90;;;;;;4995718;28;20825;-68
2022/09/15 03:48:40;;;;;;;4.17;2.10;;;19.90;99.90;;;;;;4995002;28;20177;-67
2022/09/15 03:51:07;;;;;;;3.53;2.00;;;19.90;99.90;;;;;;4995783;28;20182;-67
2022/09/15 03:53:34;;;;;;;3.73;2.03;;;19.90;99.90;;;;;;4995459;28;20221;-66
2022/09/15 03:56:23;;;;;;;3.97;2.40;;;19.90;99.90;;;;;;4978722;28;20527;-67
2022/09/15 03:58:50;;;;;;;2.63;1.90;;;19.80;99.90;;;;;;4997545;28;20840;-67
2022/09/15 04:01:17;;;;;;;2.80;1.87;;;19.70;99.90;;;;;;4995043;28;20472;-67
2022/09/15 04:03:43;;;;;;;6.90;2.63;;;19.70;99.90;;;;;;4977585;28;20926;-67
2022/09/15 04:06:09;;;;;;;2.90;2.13;;;19.80;99.90;;;;;;4996212;28;20460;-67
2022/09/15 04:08:34;;;;;;;5.97;2.60;;;19.70;99.90;;;;;;4980723;28;20914;-67
2022/09/15 04:11:07;;;;;;;3.90;2.07;;;19.70;99.90;;;;;;4995906;28;20455;-67
2022/09/15 04:13:34;;;;;;;3.60;2.13;;;19.60;99.90;;;;;;4996402;28;20267;-68
2022/09/15 04:16:05;;;;;;;6.20;3.47;;;19.60;99.90;;;;;;4993073;28;20464;-67
2022/09/15 04:18:32;;;;;;;2.50;2.13;;;19.60;99.90;;;;;;4995942;28;20778;-67
2022/09/15 04:20:59;;;;;;;3.63;2.23;;;19.60;99.90;;;;;;4997694;28;20459;-67
2022/09/15 04:23:25;;;;;;;3.60;1.97;;;19.60;99.90;;;;;;4993807;28;20520;-67
2022/09/15 04:25:58;;;;;;;3.83;2.10;;;19.50;99.90;;;;;;4995426;28;20919;-67
2022/09/15 04:28:25;;;;;;;4.80;2.30;;;19.50;99.90;;;;;;4976372;28;20871;-68
2022/09/15 04:30:52;;;;;;;3.00;2.00;;;19.50;99.90;;;;;;4995652;28;20555;-67
2022/09/15 04:33:18;;;;;;;4.27;2.30;;;19.50;99.90;;;;;;4994133;28;20432;-67
2022/09/15 04:35:43;;;;;;;2.83;2.20;;;19.70;99.90;;;;;;4995516;28;20699;-67
2022/09/15 04:38:09;;;;;;;3.97;2.13;;;19.70;99.90;;;;;;4994924;28;20478;-67
2022/09/15 04:40:35;;;;;;;2.97;2.00;;;19.70;99.90;;;;;;4980767;28;20285;-67
2022/09/15 04:43:01;;;;;;;2.40;2.10;;;19.60;99.90;;;;;;4997959;28;20428;-67
2022/09/15 04:45:26;;;;;;;4.23;2.30;;;19.60;99.90;;;;;;4981040;28;20204;-67
2022/09/15 04:47:52;;;;;;;3.07;2.03;;;19.60;99.90;;;;;;4980549;28;20236;-67
2022/09/15 04:50:18;;;;;;;2.97;2.30;;;19.60;99.90;;;;;;5002317;28;20227;-67
2022/09/15 04:52:43;;;;;;;2.93;2.13;;;19.60;99.90;;;;;;5001653;28;20284;-68
2022/09/15 04:55:09;;;;;;;3.50;2.13;;;19.60;99.90;;;;;;4997379;28;20245;-67
2022/09/15 04:57:35;;;;;;;2.50;2.00;;;19.60;99.90;;;;;;4984210;28;20591;-67
2022/09/15 05:00:04;;;;;;;4.60;2.50;;;19.60;99.90;;;;;;5002355;28;20202;-67
2022/09/15 05:02:30;;;;;;;3.07;2.30;;;19.60;99.90;;;;;;5000207;28;20710;-67
2022/09/15 05:04:55;;;;;;;3.60;2.30;;;19.60;99.90;;;;;;4999444;28;20507;-66
2022/09/15 05:07:21;;;;;;;3.93;2.30;;;19.60;99.90;;;;;;5000210;28;20243;-66
2022/09/15 05:09:46;;;;;;;3.40;2.33;;;19.60;99.90;;;;;;5001194;28;20185;-67
2022/09/15 05:12:13;;;;;;;8.53;2.63;;;19.40;99.90;;;;;;4998042;28;20193;-67
2022/09/15 05:14:38;;;;;;;3.40;2.63;;;19.40;99.90;;;;;;4996729;28;20206;-67
2022/09/15 05:17:04;;;;;;;4.10;2.70;;;19.40;99.90;;;;;;5000042;28;20442;-67
2022/09/15 05:19:29;;;;;;;2.87;2.10;;;19.40;99.90;;;;;;4997410;28;20193;-67
2022/09/15 05:21:55;;;;;;;4.10;2.50;;;19.40;99.90;;;;;;4983026;28;20181;-67
2022/09/15 05:24:21;;;;;;;4.47;2.60;;;19.40;99.90;;;;;;4998572;28;20283;-67
2022/09/15 05:26:46;;;;;;;3.80;2.57;;;19.50;99.90;;;;;;4982137;28;20563;-67
2022/09/15 05:29:12;;;;;;;7.40;2.00;;;19.40;99.90;;;;;;4997459;28;20268;-67
2022/09/15 05:31:38;;;;;;;7.77;3.10;;;19.40;99.90;;;;;;5002089;28;20288;-67
2022/09/15 05:34:04;;;;;;;3.27;2.73;;;19.40;99.90;;;;;;4998049;28;20539;-67
2022/09/15 05:36:30;;;;;;;3.00;2.60;;;19.50;99.90;;;;;;4998481;28;20195;-67
2022/09/15 05:38:56;;;;;;;3.90;2.60;;;19.40;99.90;;;;;;4997837;28;20766;-67
2022/09/15 05:41:22;;;;;;;3.97;2.93;;;19.40;99.90;;;;;;4983254;28;20567;-67
2022/09/15 05:43:50;;;;;;;6.53;2.97;;;19.40;99.90;;;;;;4999389;28;20189;-67
2022/09/15 05:46:17;;;;;;;4.00;3.00;;;19.40;99.90;;;;;;4999163;28;20449;-67
2022/09/15 05:48:44;;;;;;;11.50;3.23;;;19.50;99.90;;;;;;4995960;28;20474;-67
2022/09/15 05:51:10;;;;;;;4.40;4.00;;;19.60;99.90;;;;;;4997916;28;20449;-67
2022/09/15 05:53:36;;;;;;;6.57;3.83;;;19.50;99.90;;;;;;5000803;28;20473;-67
2022/09/15 05:56:09;;;;;;;5.90;3.03;;;19.50;99.90;;;;;;4999509;28;20432;-67
2022/09/15 05:58:37;;;;;;;5.97;3.60;;;19.60;99.90;;;;;;4996968;28;20420;-67
2022/09/15 06:01:06;;;;;;;5.17;3.00;;;19.60;99.90;;;;;;4997044;28;20464;-67
2022/09/15 06:03:31;;;;;;;6.27;3.03;;;19.60;99.90;;;;;;4983107;28;20921;-68
2022/09/15 06:06:02;;;;;;;4.90;2.50;;;19.70;99.90;;;;;;4997437;28;20464;-66
2022/09/15 06:08:36;;;;;;;4.50;3.30;;;19.60;99.90;;;;;;4998743;28;20244;-66
2022/09/15 06:11:14;;;;;;;3.20;2.40;;;19.60;99.90;;;;;;4997684;28;20471;-67
2022/09/15 06:13:40;;;;;;;5.07;2.83;;;19.60;99.90;;;;;;4986509;28;20439;-67
2022/09/15 06:16:09;;;;;;;3.70;2.97;;;19.60;99.90;;;;;;4996313;28;20481;-66
2022/09/15 06:18:36;;;;;;;3.03;2.73;;;19.60;99.90;;;;;;4999478;28;20420;-67
2022/09/15 06:21:04;;;;;;;4.00;2.80;;;19.60;99.90;;;;;;4998546;28;20842;-67
2022/09/15 06:23:29;;;;;;;3.17;2.40;;;19.50;99.90;;;;;;4997518;28;20432;-67
2022/09/15 06:25:55;;;;;;;7.53;2.50;;;19.40;99.90;;;;;;4998870;28;20435;-67
2022/09/15 06:28:20;;;;;;;3.50;2.20;;;19.50;99.90;;;;;;4998727;28;20309;-67
2022/09/15 06:30:48;;;;;;;3.53;2.80;;;19.50;99.90;;;;;;5002036;28;20214;-68
2022/09/15 06:33:14;;;;;;;4.83;2.77;;;19.50;99.90;;;;;;4998282;28;20185;-67
2022/09/15 06:35:40;;;;;;;3.20;2.70;;;19.50;99.90;;;;;;4999081;28;20494;-67
2022/09/15 06:38:06;;;;;;;4.20;2.47;;;19.50;99.90;;;;;;4996925;28;20428;-67
2022/09/15 06:40:32;;;;;;;3.10;2.40;;;19.50;99.90;;;;;;4999199;28;20255;-67
2022/09/15 06:42:58;;;;;;;4.43;2.53;;;19.50;99.90;;;;;;4999051;28;20816;-67
2022/09/15 06:45:24;;;;;;;4.30;2.27;;;19.40;99.90;;;;;;4999348;28;20460;-67
2022/09/15 06:47:51;;;;;;;4.30;2.30;;;19.40;99.90;;;;;;4999679;28;20189;-67
2022/09/15 06:50:17;;;;;;;3.77;2.40;;;19.40;99.90;;;;;;4980558;28;20194;-67
2022/09/15 06:52:42;;;;;;;4.40;2.23;;;19.40;99.90;;;;;;4998007;28;20436;-68
2022/09/15 06:55:08;;;;;;;2.60;1.83;;;19.30;99.90;;;;;;4993093;28;20232;-67
2022/09/15 06:57:34;;;;;;;2.67;1.90;;;19.30;99.90;;;;;;4996878;28;20182;-67
2022/09/15 07:00:01;;;;;;;3.37;2.23;;;19.30;99.90;;;;;;4998842;28;20292;-68
2022/09/15 07:02:26;;;;;;;4.40;2.20;;;19.20;99.90;;;;;;4998397;28;20431;-67
2022/09/15 07:04:52;;;;;;;4.43;1.97;;;19.20;99.90;;;;;;4996601;28;20440;-67
2022/09/15 07:07:17;;;;;;;3.73;2.43;;;19.10;99.90;;;;;;4995549;28;20204;-67
2022/09/15 07:09:43;;;;;;;2.30;1.90;;;19.10;99.90;;;;;;4995575;28;20441;-67
2022/09/15 07:12:09;;;;;;;3.10;2.27;;;19.10;99.90;;;;;;4996241;28;20284;-67
2022/09/15 07:14:34;;;;;;;3.17;2.07;;;19.00;99.90;;;;;;4999051;28;20279;-67
2022/09/15 07:17:00;;;;;;;4.80;3.30;;;19.00;99.90;;;;;;4979407;28;20201;-67
2022/09/15 07:19:25;;;;;;;3.40;2.30;;;19.10;99.90;;;;;;4995628;28;20185;-67
2022/09/15 07:21:51;;;;;;;3.87;2.90;;;19.10;99.90;;;;;;4998658;28;20220;-67
2022/09/15 07:24:17;;;;;;;4.33;3.87;;;18.80;99.90;;;;;;4992966;28;20216;-67
2022/09/15 07:26:43;;;;;;;6.50;4.90;;;18.80;99.90;;;;;;4996753;28;20189;-69
2022/09/15 07:29:09;;;;;;;8.57;6.03;;;18.60;99.90;;;;;;4996776;28;20444;-68
2022/09/15 07:31:37;;;;;;;8.77;6.90;;;18.50;99.90;;;;;;4981973;28;20284;-68
2022/09/15 07:34:03;;;;;;;10.73;7.60;;;18.30;99.90;;;;;;4997692;28;20891;-68
2022/09/15 07:36:29;;;;;;;9.70;7.20;;;18.10;99.90;;;;;;4996362;28;20523;-67
2022/09/15 07:38:56;;;;;;;9.47;7.90;;;18.00;99.90;;;;;;4996095;28;20455;-67
2022/09/15 07:41:29;;;;;;;10.33;7.70;;;17.90;99.90;;;;;;4999957;28;20480;-67
2022/09/15 07:43:57;;;;;;;8.03;7.20;;;17.80;99.90;;;;;;4995871;28;20428;-66
2022/09/15 07:46:24;;;;;;;8.40;7.40;;;17.70;99.90;;;;;;4996203;28;20445;-67
2022/09/15 07:48:52;;;;;;;8.70;7.27;;;17.70;99.90;;;;;;4997524;28;20420;-67
2022/09/15 07:51:18;;;;;;;9.50;6.50;;;17.60;99.90;;;;;;4994746;28;20441;-67
2022/09/15 07:53:45;;;;;;;7.20;5.70;;;17.50;99.90;;;;;;4997097;28;20439;-66
2022/09/15 07:56:11;;;;;;;7.13;5.60;;;17.50;99.90;;;;;;4996129;28;20749;-68
2022/09/15 07:58:37;;;;;;;6.43;5.57;;;17.40;99.90;;;;;;4997774;28;20428;-67
2022/09/15 08:01:05;;;;;;;8.77;6.93;;;17.40;99.90;;;;;;4997938;28;20463;-67
2022/09/15 08:03:30;;;;;;;7.07;6.33;;;17.30;99.90;;;;;;4995730;28;20415;-66
2022/09/15 08:06:00;;;;;;;10.00;6.80;;;17.30;99.90;;;;;;4991643;28;20568;-67
2022/09/15 08:08:27;;;;;;;7.40;6.40;;;17.20;99.90;;;;;;4994942;28;20182;-67
2022/09/15 08:10:53;;;;;;;7.03;5.93;;;17.30;99.90;;;;;;4997382;28;20420;-66
2022/09/15 08:13:19;;;;;;;8.53;6.27;;;17.30;99.90;;;;;;4997073;28;20442;-66
2022/09/15 08:15:45;;;;;;;7.93;5.73;;;17.30;99.90;;;;;;4997390;28;20464;-66
2022/09/15 08:18:11;;;;;;;8.07;6.17;;;17.30;99.90;;;;;;4994777;28;20266;-66
2022/09/15 08:20:41;;;;;;;8.07;6.13;;;17.30;99.90;;;;;;4997231;28;20468;-66
2022/09/15 08:23:08;;;;;;;7.83;5.57;;;17.30;99.90;;;;;;4993996;28;20443;-66
2022/09/15 08:25:34;;;;;;;6.13;5.50;;;17.40;99.90;;;;;;4995908;28;20448;-66
2022/09/15 08:28:00;;;;;;;9.27;6.07;;;17.40;99.90;;;;;;4995903;28;20987;-66
2022/09/15 08:30:26;;;;;;;5.80;5.20;;;17.50;99.90;;;;;;4993540;28;20186;-66
2022/09/15 08:32:52;;;;;;;6.33;5.10;;;17.50;99.90;;;;;;4992371;28;20921;-66
2022/09/15 08:35:18;;;;;;;6.97;5.93;;;17.60;99.90;;;;;;4996664;28;20451;-66
2022/09/15 08:37:44;;;;;;;7.83;5.60;;;17.60;99.90;;;;;;4997016;28;20737;-67
2022/09/15 08:40:19;;;;;;;8.93;6.00;;;17.60;99.90;;;;;;4994663;28;20622;-67
2022/09/15 08:42:49;;;;;;;8.03;6.07;;;17.60;99.90;;;;;;4995557;28;20428;-67
2022/09/15 08:45:26;;;;;;;8.30;6.30;;;17.60;99.90;;;;;;4994616;28;20447;-67
2022/09/15 08:47:58;;;;;;;9.67;6.30;;;17.60;99.90;;;;;;4995434;28;20418;-67
2022/09/15 08:50:32;;;;;;;9.00;7.17;;;17.60;99.90;;;;;;4977853;28;20440;-66
2022/09/15 08:53:12;;;;;;;9.63;7.00;;;17.60;99.90;;;;;;4990169;28;20444;-67
2022/09/15 08:55:54;;;;;;;9.63;7.53;;;17.70;99.90;;;;;;4977422;28;20459;-66
2022/09/15 08:58:29;;;;;;;9.73;7.30;;;17.60;99.90;;;;;;4996519;28;20505;-66
2022/09/15 09:01:25;;;;;;;11.33;6.40;;;17.70;99.90;;;;;;4996450;28;20475;-66
2022/09/15 09:04:20;;;;;;;7.60;6.67;;;17.70;99.90;;;;;;4991868;28;20424;-67
2022/09/15 09:07:16;;;;;;;10.33;5.73;;;17.70;99.90;;;;;;4992320;28;20435;-67
2022/09/15 09:09:50;;;;;;;8.67;6.40;;;17.60;99.90;;;;;;4993057;28;20417;-67
2022/09/15 09:12:39;;;;;;;8.10;6.33;;;17.70;99.90;;;;;;4995886;28;20966;-67
2022/09/15 09:15:24;;;;;;;6.77;5.70;;;17.80;99.90;;;;;;4993375;28;20538;-66
2022/09/15 09:18:12;;;;;;;7.40;6.53;;;17.80;99.90;;;;;;4977760;28;20956;-67
2022/09/15 09:20:58;;;;;;;9.37;6.13;;;17.80;99.90;;;;;;4992675;28;20474;-65
2022/09/15 09:23:28;;;;;;;7.73;5.63;;;17.80;99.90;;;;;;4991601;28;20810;-67
2022/09/15 09:25:56;;;;;;;6.30;5.70;;;17.90;99.90;;;;;;4997296;28;20435;-66
2022/09/15 09:28:29;;;;;;;6.40;5.03;;;17.90;99.90;;;;;;4993555;28;20437;-66
2022/09/15 09:31:05;;;;;;;9.10;5.07;;;17.80;99.90;;;;;;4999139;28;20470;-67
2022/09/15 09:33:50;;;;;;;5.53;4.97;;;17.80;99.90;;;;;;4998295;28;20804;-67
2022/09/15 09:36:16;;;;;;;9.03;5.80;;;17.70;99.90;;;;;;4997648;28;20450;-67
2022/09/15 09:38:44;;;;;;;6.20;5.60;;;17.80;99.90;;;;;;5001882;28;20439;-67
2022/09/15 09:41:35;;;;;;;5.73;4.87;;;17.80;99.90;;;;;;4999494;28;20292;-67
2022/09/15 09:44:03;;;;;;;6.13;5.07;;;17.70;99.90;;;;;;4980360;28;20960;-67
2022/09/15 09:46:30;;;;;;;6.83;5.53;;;17.70;99.90;;;;;;4993888;28;20449;-67
2022/09/15 09:49:03;;;;;;;9.00;6.83;;;17.80;99.90;;;;;;4998518;28;20458;-67
2022/09/15 09:51:32;;;;;;;6.60;4.90;;;17.80;99.90;;;;;;4997675;28;20424;-66
2022/09/15 09:54:09;;;;;;;6.13;4.60;;;17.80;99.90;;;;;;4997637;28;20420;-66
2022/09/15 09:56:35;;;;;;;6.30;5.00;;;17.70;99.90;;;;;;4997376;28;20452;-66
2022/09/15 09:59:02;;;;;;;5.50;4.87;;;17.80;99.90;;;;;;5000975;28;20731;-66
2022/09/15 10:01:28;;;;;;;9.10;5.00;;;17.80;99.90;;;;;;4997995;28;20356;-67
2022/09/15 10:04:18;;;;;;;7.37;5.40;;;17.90;99.90;;;;;;4998834;28;20523;-67
2022/09/15 10:06:44;;;;;;;8.83;5.20;;;17.80;99.90;;;;;;4994776;28;20440;-67
2022/09/15 10:09:18;;;;;;;6.17;5.53;;;17.90;99.90;;;;;;5000056;28;20796;-68
2022/09/15 10:11:45;;;;;;;7.20;4.73;;;17.80;99.90;;;;;;4999278;28;20470;-66
2022/09/15 10:14:31;;;;;;;6.47;5.13;;;17.90;99.90;;;;;;4998980;28;20424;-67
2022/09/15 10:17:01;;;;;;;7.33;5.10;;;18.00;99.90;;;;;;4998957;28;20813;-67
2022/09/15 10:19:29;;;;;;;6.43;4.93;;;18.10;99.90;;;;;;4998772;28;20527;-67
2022/09/15 10:21:56;;;;;;;8.07;5.33;;;18.10;99.90;;;;;;5000043;28;20821;-66
2022/09/15 10:24:29;;;;;;;11.10;5.40;;;18.10;99.90;;;;;;4979858;28;20864;-68
2022/09/15 10:27:18;;;;;;;9.70;5.53;;;18.20;99.90;;;;;;4976798;28;20413;-66
2022/09/15 10:29:45;;;;;;;5.80;5.17;;;18.20;99.90;;;;;;5001492;28;20744;-66
2022/09/15 10:32:30;;;;;;;5.07;4.57;;;18.30;99.90;;;;;;4998811;28;20439;-66
2022/09/15 10:35:13;;;;;;;6.77;5.43;;;18.40;99.90;;;;;;4998591;28;20509;-66
2022/09/15 10:37:49;;;;;;;6.27;5.53;;;18.30;99.90;;;;;;4997657;28;20472;-66
2022/09/15 10:40:30;;;;;;;8.07;5.10;;;18.40;99.90;;;;;;4995976;28;20546;-67
2022/09/15 10:43:10;;;;;;;7.30;4.93;;;18.40;99.90;;;;;;4999332;28;20416;-66
2022/09/15 10:45:38;;;;;;;9.53;6.27;;;18.40;99.90;;;;;;4996812;28;20502;-67
2022/09/15 10:48:21;;;;;;;8.50;5.77;;;18.50;99.90;;;;;;4995105;28;20443;-67
2022/09/15 10:50:53;;;;;;;5.80;4.60;;;18.50;99.90;;;;;;4999971;28;20514;-67
2022/09/15 10:53:29;;;;;;;6.03;5.33;;;18.60;99.90;;;;;;4996025;28;20429;-67
2022/09/15 10:56:33;;;;;;;5.50;4.90;;;18.60;99.90;;;;;;4981756;28;20467;-67
2022/09/15 10:59:25;;;;;;;5.83;4.50;;;18.60;99.90;;;;;;4996289;28;20428;-67
2022/09/15 11:02:26;;;;;;;5.63;4.93;;;18.80;99.90;;;;;;4963755;28;20863;-68
2022/09/15 11:05:23;;;;;;;7.30;5.67;;;18.90;99.90;;;;;;4996057;28;20561;-67
2022/09/15 11:07:55;;;;;;;7.63;5.70;;;19.10;99.90;;;;;;5000118;28;20432;-68
2022/09/15 11:10:31;;;;;;;5.67;5.03;;;19.20;99.90;;;;;;4978250;28;21138;-68
2022/09/15 11:13:24;;;;;;;7.83;6.53;;;19.20;99.90;;;;;;4995833;28;20448;-68
2022/09/15 11:16:23;;;;;;;9.17;6.30;;;19.30;99.90;;;;;;4996139;28;20438;-67
2022/09/15 11:19:07;;;;;;;10.30;8.83;;;19.30;99.90;;;;;;4999334;28;20509;-67
2022/09/15 11:21:53;;;;;;;10.47;8.00;;;19.40;99.90;;;;;;5001323;28;20720;-66
2022/09/15 11:24:45;;;;;;;10.17;7.90;;;19.40;99.90;;;;;;4996194;28;20826;-67
2022/09/15 11:27:33;;;;;;;13.50;9.13;;;19.50;99.90;;;;;;4993722;28;20428;-66
2022/09/15 11:30:06;;;;;;;14.90;8.80;;;19.70;99.90;;;;;;4998769;28;20416;-66
2022/09/15 11:32:50;;;;;;;10.57;8.43;;;19.80;99.90;;;;;;4998104;28;20511;-67
2022/09/15 11:35:35;;;;;;;9.70;8.40;;;19.80;99.90;;;;;;4995289;28;20447;-66
2022/09/15 11:38:11;;;;;;;10.43;7.40;;;19.90;99.90;;;;;;4999034;28;20443;-67
2022/09/15 11:40:43;;;;;;;10.20;7.27;;;20.10;99.90;;;;;;4998078;28;20576;-66
2022/09/15 11:43:31;;;;;;;8.70;6.60;;;20.20;99.90;;;;;;4999701;28;20787;-66
2022/09/15 11:45:59;;;;;;;10.07;6.50;;;20.30;99.90;;;;;;4997708;28;20455;-67
2022/09/15 11:48:38;;;;;;;6.80;5.77;;;20.00;99.90;;;;;;4996292;28;20423;-67
2022/09/15 11:51:06;;;;;;;7.77;5.40;;;20.10;99.90;;;;;;4996474;28;20972;-67
2022/09/15 11:53:34;;;;;;;9.80;5.50;;;20.10;99.90;;;;;;4995750;28;20432;-66
2022/09/15 11:56:20;;;;;;;8.20;5.80;;;20.10;99.90;;;;;;4996029;28;20459;-68
2022/09/15 11:59:11;;;;;;;6.53;5.90;;;20.20;99.90;;;;;;4997927;28;20936;-66
2022/09/15 12:02:07;;;;;;;8.67;6.50;;;20.30;99.90;;;;;;4996227;28;20476;-66
2022/09/15 12:04:40;;;;;;;9.70;6.77;;;20.10;99.90;;;;;;4992800;28;20468;-66
2022/09/15 12:07:12;;;;;;;8.70;6.77;;;20.10;99.90;;;;;;4996869;28;20424;-66
2022/09/15 12:09:38;;;;;;;8.03;6.63;;;20.10;99.90;;;;;;4994063;28;20641;-67
2022/09/15 12:12:11;;;;;;;8.93;6.60;;;20.10;99.90;;;;;;4996512;28;20929;-67
2022/09/15 12:14:56;;;;;;;7.93;6.00;;;20.10;99.90;;;;;;4995673;28;20209;-67
2022/09/15 12:17:38;;;;;;;7.90;7.10;;;20.00;99.90;;;;;;4994501;28;20491;-67
2022/09/15 12:20:22;;;;;;;7.47;6.20;;;20.10;99.90;;;;;;4996094;28;20468;-67
2022/09/15 12:23:00;;;;;;;9.20;6.60;;;20.20;99.90;;;;;;4997990;28;20440;-68
2022/09/15 12:25:43;;;;;;;8.37;6.97;;;20.50;99.90;;;;;;4996148;28;20442;-68
2022/09/15 12:28:21;;;;;;;6.43;5.67;;;20.70;99.90;;;;;;4993537;28;20444;-67
2022/09/15 12:30:54;;;;;;;8.43;6.80;;;21.10;99.90;;;;;;4998109;28;20429;-65
2022/09/15 12:33:54;;;;;;;8.90;6.80;;;21.10;99.90;;;;;;4995003;28;20423;-66
2022/09/15 12:36:38;;;;;;;8.07;7.27;;;20.90;99.90;;;;;;4955390;28;20452;-66
2022/09/15 12:39:21;;;;;;;8.90;7.30;;;21.00;99.90;;;;;;4998671;28;20838;-66
2022/09/15 12:42:07;;;;;;;7.83;6.43;;;20.80;99.90;;;;;;4994982;28;20602;-66
2022/09/15 12:44:48;;;;;;;7.80;6.23;;;20.80;99.90;;;;;;4985578;28;20456;-66
2022/09/15 12:47:21;;;;;;;8.10;6.70;;;20.60;99.90;;;;;;4996043;28;20419;-66
2022/09/15 12:49:49;;;;;;;7.00;6.07;;;20.70;99.90;;;;;;4994807;28;20925;-66
2022/09/15 12:52:18;;;;;;;7.17;5.77;;;20.90;99.90;;;;;;4991380;28;20965;-67
2022/09/15 12:54:49;;;;;;;9.93;6.80;;;21.50;99.90;;;;;;4976879;28;20451;-67
2022/09/15 12:57:32;;;;;;;6.90;5.30;;;21.80;99.90;;;;;;4980624;28;20470;-67
2022/09/15 13:00:31;;;;;;;6.53;4.80;;;22.40;99.90;;;;;;4997983;28;20558;-67
2022/09/15 13:02:57;;;;;;;11.27;6.30;;;22.60;99.90;;;;;;4980656;28;20428;-67
2022/09/15 13:05:41;;;;;;;7.03;5.17;;;22.50;99.90;;;;;;4997146;28;20570;-67
2022/09/15 13:08:31;;;;;;;5.23;4.73;;;22.50;99.90;;;;;;4998792;28;20420;-66
2022/09/15 13:11:14;;;;;;;8.83;5.50;;;22.20;99.90;;;;;;5000660;28;20439;-67
2022/09/15 13:13:44;;;;;;;6.87;5.67;;;22.20;99.90;;;;;;4995593;28;20432;-66